Huvudsida
METAR-TAF:

METAR-TAF

Flygplatser :

Zanjan, Iran

latitud: 36-41N, longitud: 048-29E, höjd: 1663 m

Aktuellt väderrapport

Denna rapport gjordes för 56 minuter sedan, klockan 15:00 UTC
Vind 16 kt från ost
Temperatur 19°C
Fuktighet 60%
Tryck 1022 hPa
Sikt 10 km eller mer
Få moln på en höjd av 3000 ft

METAR: OITZ 271500Z 10016KT 9999 FEW030 19/11 Q1022

Tid: 20:26 (15:56 UTC)


TAF: saknas

Aktuella väderrapporter och prognoser från 4000 flygplatser (METAR- och TAF-rapporter).

De tillgängliga stationerna syns som gula och röda prickar på kartan.

För musen över prickarna för att se namnen på stationerna.

Klicka sedan för att få väderrapporter och prognoser.

För att ändra kartan: Klicka på de gröna knapparna med ett svart kors på för att zooma in; den gröna knappen med ett streck på för att zooma ut; eller på de gröna pilarna för angränsande kartor.


METAR-TAF: